sensor_id;sensor_type;location;lat;lon;timestamp;P1;durP1;ratioP1;P2;durP2;ratioP2
67028;SDS011;53934;52.142;11.738;2022-11-03T00:01:53;7.63;;;3.45;;
67028;SDS011;53934;52.142;11.738;2022-11-03T00:04:20;8.10;;;3.13;;
67028;SDS011;53934;52.142;11.738;2022-11-03T00:06:49;15.85;;;3.67;;
67028;SDS011;53934;52.142;11.738;2022-11-03T00:09:18;7.95;;;3.28;;
67028;SDS011;53934;52.142;11.738;2022-11-03T00:11:47;11.95;;;4.13;;
67028;SDS011;53934;52.142;11.738;2022-11-03T00:14:14;9.25;;;3.17;;
67028;SDS011;53934;52.142;11.738;2022-11-03T00:16:42;12.70;;;3.60;;
67028;SDS011;53934;52.142;11.738;2022-11-03T00:19:09;11.20;;;3.83;;
67028;SDS011;53934;52.142;11.738;2022-11-03T00:21:37;11.27;;;3.47;;
67028;SDS011;53934;52.142;11.738;2022-11-03T00:24:05;11.57;;;3.22;;
67028;SDS011;53934;52.142;11.738;2022-11-03T00:26:34;6.78;;;2.75;;
67028;SDS011;53934;52.142;11.738;2022-11-03T00:29:01;11.75;;;3.88;;
67028;SDS011;53934;52.142;11.738;2022-11-03T00:31:32;8.77;;;2.92;;
67028;SDS011;53934;52.142;11.738;2022-11-03T00:34:00;11.10;;;3.00;;
67028;SDS011;53934;52.142;11.738;2022-11-03T00:36:28;7.50;;;3.33;;
67028;SDS011;53934;52.142;11.738;2022-11-03T00:38:57;10.95;;;2.88;;
67028;SDS011;53934;52.142;11.738;2022-11-03T00:41:25;8.35;;;3.25;;
67028;SDS011;53934;52.142;11.738;2022-11-03T00:43:52;6.90;;;3.03;;
67028;SDS011;53934;52.142;11.738;2022-11-03T00:46:19;9.93;;;3.05;;
67028;SDS011;53934;52.142;11.738;2022-11-03T00:48:47;14.80;;;4.50;;
67028;SDS011;53934;52.142;11.738;2022-11-03T00:51:14;11.60;;;3.35;;
67028;SDS011;53934;52.142;11.738;2022-11-03T00:53:44;6.47;;;2.97;;
67028;SDS011;53934;52.142;11.738;2022-11-03T00:56:13;8.48;;;3.13;;
67028;SDS011;53934;52.142;11.738;2022-11-03T00:58:41;9.50;;;3.25;;
67028;SDS011;53934;52.142;11.738;2022-11-03T01:01:09;13.32;;;3.35;;
67028;SDS011;53934;52.142;11.738;2022-11-03T01:03:37;10.25;;;3.10;;
67028;SDS011;53934;52.142;11.738;2022-11-03T01:06:05;9.60;;;3.22;;
67028;SDS011;53934;52.142;11.738;2022-11-03T01:08:50;8.88;;;3.00;;
67028;SDS011;53934;52.142;11.738;2022-11-03T01:11:18;8.43;;;3.83;;
67028;SDS011;53934;52.142;11.738;2022-11-03T01:14:05;5.13;;;2.92;;
67028;SDS011;53934;52.142;11.738;2022-11-03T01:16:33;9.93;;;2.63;;
67028;SDS011;53934;52.142;11.738;2022-11-03T01:18:59;5.30;;;2.13;;
67028;SDS011;53934;52.142;11.738;2022-11-03T01:21:26;8.75;;;3.40;;
67028;SDS011;53934;52.142;11.738;2022-11-03T01:23:53;6.72;;;3.35;;
67028;SDS011;53934;52.142;11.738;2022-11-03T01:26:19;7.78;;;3.25;;
67028;SDS011;53934;52.142;11.738;2022-11-03T01:28:46;13.95;;;3.10;;
67028;SDS011;53934;52.142;11.738;2022-11-03T01:31:15;15.57;;;3.65;;
67028;SDS011;53934;52.142;11.738;2022-11-03T01:33:43;9.30;;;3.30;;
67028;SDS011;53934;52.142;11.738;2022-11-03T01:36:11;6.68;;;2.90;;
67028;SDS011;53934;52.142;11.738;2022-11-03T01:38:39;11.07;;;2.60;;
67028;SDS011;53934;52.142;11.738;2022-11-03T01:41:07;6.15;;;3.15;;
67028;SDS011;53934;52.142;11.738;2022-11-03T01:43:36;9.77;;;2.90;;
67028;SDS011;53934;52.142;11.738;2022-11-03T01:46:05;8.07;;;2.80;;
67028;SDS011;53934;52.142;11.738;2022-11-03T01:48:40;10.20;;;3.22;;
67028;SDS011;53934;52.142;11.738;2022-11-03T01:51:11;6.32;;;2.67;;
67028;SDS011;53934;52.142;11.738;2022-11-03T01:53:41;8.15;;;3.45;;
67028;SDS011;53934;52.142;11.738;2022-11-03T01:56:11;6.68;;;2.60;;
67028;SDS011;53934;52.142;11.738;2022-11-03T01:58:38;16.67;;;3.53;;
67028;SDS011;53934;52.142;11.738;2022-11-03T02:01:08;10.30;;;3.30;;
67028;SDS011;53934;52.142;11.738;2022-11-03T02:03:37;12.00;;;3.35;;
67028;SDS011;53934;52.142;11.738;2022-11-03T02:06:11;8.95;;;3.03;;
67028;SDS011;53934;52.142;11.738;2022-11-03T02:08:39;9.45;;;3.33;;
67028;SDS011;53934;52.142;11.738;2022-11-03T02:11:11;7.85;;;3.40;;
67028;SDS011;53934;52.142;11.738;2022-11-03T02:13:58;13.27;;;3.75;;
67028;SDS011;53934;52.142;11.738;2022-11-03T02:16:24;13.27;;;3.85;;
67028;SDS011;53934;52.142;11.738;2022-11-03T02:18:55;12.32;;;4.18;;
67028;SDS011;53934;52.142;11.738;2022-11-03T02:21:25;8.60;;;3.60;;
67028;SDS011;53934;52.142;11.738;2022-11-03T02:23:55;11.45;;;3.95;;
67028;SDS011;53934;52.142;11.738;2022-11-03T02:26:27;18.00;;;4.40;;
67028;SDS011;53934;52.142;11.738;2022-11-03T02:28:54;8.07;;;3.35;;
67028;SDS011;53934;52.142;11.738;2022-11-03T02:31:22;8.02;;;2.97;;
67028;SDS011;53934;52.142;11.738;2022-11-03T02:33:56;15.13;;;4.15;;
67028;SDS011;53934;52.142;11.738;2022-11-03T02:36:30;13.45;;;3.97;;
67028;SDS011;53934;52.142;11.738;2022-11-03T02:39:02;11.00;;;3.88;;
67028;SDS011;53934;52.142;11.738;2022-11-03T02:41:34;11.50;;;3.78;;
67028;SDS011;53934;52.142;11.738;2022-11-03T02:44:02;14.30;;;4.22;;
67028;SDS011;53934;52.142;11.738;2022-11-03T02:46:30;10.52;;;3.55;;
67028;SDS011;53934;52.142;11.738;2022-11-03T02:48:59;10.82;;;3.80;;
67028;SDS011;53934;52.142;11.738;2022-11-03T02:51:25;15.65;;;4.28;;
67028;SDS011;53934;52.142;11.738;2022-11-03T02:53:55;10.52;;;4.35;;
67028;SDS011;53934;52.142;11.738;2022-11-03T02:56:29;9.40;;;4.30;;
67028;SDS011;53934;52.142;11.738;2022-11-03T02:59:00;8.60;;;4.30;;
67028;SDS011;53934;52.142;11.738;2022-11-03T03:01:29;9.70;;;4.10;;
67028;SDS011;53934;52.142;11.738;2022-11-03T03:04:02;9.35;;;4.47;;
67028;SDS011;53934;52.142;11.738;2022-11-03T03:06:33;10.05;;;4.47;;
67028;SDS011;53934;52.142;11.738;2022-11-03T03:09:02;11.70;;;4.72;;
67028;SDS011;53934;52.142;11.738;2022-11-03T03:11:32;10.05;;;4.10;;
67028;SDS011;53934;52.142;11.738;2022-11-03T03:14:06;12.80;;;4.53;;
67028;SDS011;53934;52.142;11.738;2022-11-03T03:16:40;13.98;;;4.68;;
67028;SDS011;53934;52.142;11.738;2022-11-03T03:19:14;19.75;;;3.92;;
67028;SDS011;53934;52.142;11.738;2022-11-03T03:21:47;12.18;;;4.15;;
67028;SDS011;53934;52.142;11.738;2022-11-03T03:24:18;7.72;;;3.33;;
67028;SDS011;53934;52.142;11.738;2022-11-03T03:26:50;13.57;;;4.13;;
67028;SDS011;53934;52.142;11.738;2022-11-03T03:29:21;12.48;;;4.20;;
67028;SDS011;53934;52.142;11.738;2022-11-03T03:31:52;11.68;;;4.50;;
67028;SDS011;53934;52.142;11.738;2022-11-03T03:34:23;16.90;;;4.05;;
67028;SDS011;53934;52.142;11.738;2022-11-03T03:36:51;12.80;;;4.47;;
67028;SDS011;53934;52.142;11.738;2022-11-03T03:39:21;14.85;;;4.28;;
67028;SDS011;53934;52.142;11.738;2022-11-03T03:41:52;10.93;;;4.15;;
67028;SDS011;53934;52.142;11.738;2022-11-03T03:44:22;15.38;;;3.92;;
67028;SDS011;53934;52.142;11.738;2022-11-03T03:46:50;11.40;;;4.00;;
67028;SDS011;53934;52.142;11.738;2022-11-03T03:49:20;12.43;;;4.28;;
67028;SDS011;53934;52.142;11.738;2022-11-03T03:51:47;7.43;;;3.65;;
67028;SDS011;53934;52.142;11.738;2022-11-03T03:54:15;13.75;;;4.03;;
67028;SDS011;53934;52.142;11.738;2022-11-03T03:56:42;9.75;;;4.35;;
67028;SDS011;53934;52.142;11.738;2022-11-03T03:59:13;10.38;;;4.13;;
67028;SDS011;53934;52.142;11.738;2022-11-03T04:01:41;9.80;;;4.68;;
67028;SDS011;53934;52.142;11.738;2022-11-03T04:04:07;11.02;;;4.72;;
67028;SDS011;53934;52.142;11.738;2022-11-03T04:06:34;10.85;;;4.45;;
67028;SDS011;53934;52.142;11.738;2022-11-03T04:09:00;10.88;;;4.35;;
67028;SDS011;53934;52.142;11.738;2022-11-03T04:11:27;10.65;;;4.28;;
67028;SDS011;53934;52.142;11.738;2022-11-03T04:14:11;13.25;;;4.32;;
67028;SDS011;53934;52.142;11.738;2022-11-03T04:16:56;10.88;;;4.30;;
67028;SDS011;53934;52.142;11.738;2022-11-03T04:19:40;9.32;;;4.13;;
67028;SDS011;53934;52.142;11.738;2022-11-03T04:22:25;11.73;;;4.93;;
67028;SDS011;53934;52.142;11.738;2022-11-03T04:24:54;12.70;;;4.22;;
67028;SDS011;53934;52.142;11.738;2022-11-03T04:27:26;12.85;;;4.40;;
67028;SDS011;53934;52.142;11.738;2022-11-03T04:29:55;12.48;;;3.92;;
67028;SDS011;53934;52.142;11.738;2022-11-03T04:32:26;15.38;;;4.15;;
67028;SDS011;53934;52.142;11.738;2022-11-03T04:34:54;10.30;;;4.10;;
67028;SDS011;53934;52.142;11.738;2022-11-03T04:37:20;11.77;;;5.00;;
67028;SDS011;53934;52.142;11.738;2022-11-03T04:39:47;12.88;;;4.38;;
67028;SDS011;53934;52.142;11.738;2022-11-03T04:42:14;10.02;;;4.10;;
67028;SDS011;53934;52.142;11.738;2022-11-03T04:44:43;11.02;;;4.50;;
67028;SDS011;53934;52.142;11.738;2022-11-03T04:47:11;12.90;;;4.68;;
67028;SDS011;53934;52.142;11.738;2022-11-03T04:49:39;9.93;;;3.95;;
67028;SDS011;53934;52.142;11.738;2022-11-03T04:52:08;11.15;;;4.35;;
67028;SDS011;53934;52.142;11.738;2022-11-03T04:54:39;18.55;;;4.20;;
67028;SDS011;53934;52.142;11.738;2022-11-03T04:57:07;12.73;;;4.20;;
67028;SDS011;53934;52.142;11.738;2022-11-03T04:59:36;7.40;;;3.75;;
67028;SDS011;53934;52.142;11.738;2022-11-03T05:02:02;12.70;;;4.13;;
67028;SDS011;53934;52.142;11.738;2022-11-03T05:04:34;10.23;;;4.10;;
67028;SDS011;53934;52.142;11.738;2022-11-03T05:07:04;14.15;;;4.30;;
67028;SDS011;53934;52.142;11.738;2022-11-03T05:09:47;16.90;;;5.03;;
67028;SDS011;53934;52.142;11.738;2022-11-03T05:12:14;11.43;;;4.57;;
67028;SDS011;53934;52.142;11.738;2022-11-03T05:14:41;16.88;;;4.68;;
67028;SDS011;53934;52.142;11.738;2022-11-03T05:17:13;12.70;;;4.80;;
67028;SDS011;53934;52.142;11.738;2022-11-03T05:19:46;11.40;;;4.95;;
67028;SDS011;53934;52.142;11.738;2022-11-03T05:22:16;12.10;;;4.85;;
67028;SDS011;53934;52.142;11.738;2022-11-03T05:24:45;11.50;;;4.90;;
67028;SDS011;53934;52.142;11.738;2022-11-03T05:27:14;12.38;;;4.65;;
67028;SDS011;53934;52.142;11.738;2022-11-03T05:29:43;11.48;;;4.88;;
67028;SDS011;53934;52.142;11.738;2022-11-03T05:32:10;11.70;;;4.38;;
67028;SDS011;53934;52.142;11.738;2022-11-03T05:34:40;12.45;;;4.78;;
67028;SDS011;53934;52.142;11.738;2022-11-03T05:37:14;13.77;;;4.45;;
67028;SDS011;53934;52.142;11.738;2022-11-03T05:39:49;11.05;;;4.28;;
67028;SDS011;53934;52.142;11.738;2022-11-03T05:42:22;10.43;;;4.32;;
67028;SDS011;53934;52.142;11.738;2022-11-03T05:44:55;11.13;;;4.95;;
67028;SDS011;53934;52.142;11.738;2022-11-03T05:47:23;15.35;;;4.70;;
67028;SDS011;53934;52.142;11.738;2022-11-03T05:49:53;11.60;;;4.03;;
67028;SDS011;53934;52.142;11.738;2022-11-03T05:52:26;6.63;;;3.85;;
67028;SDS011;53934;52.142;11.738;2022-11-03T05:54:54;13.23;;;4.55;;
67028;SDS011;53934;52.142;11.738;2022-11-03T05:57:23;8.60;;;4.47;;
67028;SDS011;53934;52.142;11.738;2022-11-03T05:59:51;19.65;;;5.28;;
67028;SDS011;53934;52.142;11.738;2022-11-03T06:02:32;9.65;;;5.25;;
67028;SDS011;53934;52.142;11.738;2022-11-03T06:05:08;12.05;;;4.50;;
67028;SDS011;53934;52.142;11.738;2022-11-03T06:07:41;20.63;;;5.25;;
67028;SDS011;53934;52.142;11.738;2022-11-03T06:10:17;9.65;;;4.40;;
67028;SDS011;53934;52.142;11.738;2022-11-03T06:12:48;15.52;;;4.47;;
67028;SDS011;53934;52.142;11.738;2022-11-03T06:15:21;12.27;;;4.70;;
67028;SDS011;53934;52.142;11.738;2022-11-03T06:17:52;9.50;;;4.43;;
67028;SDS011;53934;52.142;11.738;2022-11-03T06:20:19;11.75;;;4.53;;
67028;SDS011;53934;52.142;11.738;2022-11-03T06:22:48;12.82;;;4.25;;
67028;SDS011;53934;52.142;11.738;2022-11-03T06:25:20;11.32;;;4.88;;
67028;SDS011;53934;52.142;11.738;2022-11-03T06:30:19;9.55;;;4.43;;
67028;SDS011;53934;52.142;11.738;2022-11-03T06:32:51;11.93;;;5.28;;
67028;SDS011;53934;52.142;11.738;2022-11-03T06:35:18;10.05;;;4.03;;
67028;SDS011;53934;52.142;11.738;2022-11-03T06:37:45;10.13;;;4.25;;
67028;SDS011;53934;52.142;11.738;2022-11-03T06:40:34;12.90;;;4.53;;
67028;SDS011;53934;52.142;11.738;2022-11-03T06:43:19;14.00;;;4.93;;
67028;SDS011;53934;52.142;11.738;2022-11-03T06:45:50;7.75;;;4.15;;
67028;SDS011;53934;52.142;11.738;2022-11-03T06:50:47;12.75;;;4.75;;
67028;SDS011;53934;52.142;11.738;2022-11-03T06:53:17;11.88;;;4.95;;
67028;SDS011;53934;52.142;11.738;2022-11-03T06:55:47;15.05;;;5.05;;
67028;SDS011;53934;52.142;11.738;2022-11-03T06:58:15;10.32;;;4.57;;
67028;SDS011;53934;52.142;11.738;2022-11-03T07:00:48;13.43;;;4.65;;
67028;SDS011;53934;52.142;11.738;2022-11-03T07:03:15;9.27;;;4.88;;
67028;SDS011;53934;52.142;11.738;2022-11-03T07:05:46;9.48;;;5.05;;
67028;SDS011;53934;52.142;11.738;2022-11-03T07:08:15;10.93;;;5.28;;
67028;SDS011;53934;52.142;11.738;2022-11-03T07:10:48;13.13;;;4.80;;
67028;SDS011;53934;52.142;11.738;2022-11-03T07:13:17;10.35;;;4.60;;
67028;SDS011;53934;52.142;11.738;2022-11-03T07:15:48;14.48;;;4.72;;
67028;SDS011;53934;52.142;11.738;2022-11-03T07:18:16;11.10;;;4.10;;
67028;SDS011;53934;52.142;11.738;2022-11-03T07:20:46;6.75;;;2.63;;
67028;SDS011;53934;52.142;11.738;2022-11-03T07:23:14;11.75;;;3.58;;
67028;SDS011;53934;52.142;11.738;2022-11-03T07:25:44;12.40;;;3.95;;
67028;SDS011;53934;52.142;11.738;2022-11-03T07:28:16;12.07;;;3.90;;
67028;SDS011;53934;52.142;11.738;2022-11-03T07:30:42;12.55;;;3.75;;
67028;SDS011;53934;52.142;11.738;2022-11-03T07:33:10;8.50;;;3.28;;
67028;SDS011;53934;52.142;11.738;2022-11-03T07:35:40;10.07;;;3.55;;
67028;SDS011;53934;52.142;11.738;2022-11-03T07:38:08;9.20;;;3.45;;
67028;SDS011;53934;52.142;11.738;2022-11-03T07:40:38;9.75;;;3.17;;
67028;SDS011;53934;52.142;11.738;2022-11-03T07:43:10;11.63;;;3.85;;
67028;SDS011;53934;52.142;11.738;2022-11-03T07:45:43;9.73;;;3.53;;
67028;SDS011;53934;52.142;11.738;2022-11-03T07:48:15;13.48;;;4.25;;
67028;SDS011;53934;52.142;11.738;2022-11-03T07:50:44;10.45;;;3.60;;
67028;SDS011;53934;52.142;11.738;2022-11-03T07:53:13;14.25;;;3.45;;
67028;SDS011;53934;52.142;11.738;2022-11-03T07:55:45;13.90;;;3.40;;
67028;SDS011;53934;52.142;11.738;2022-11-03T07:58:17;14.88;;;4.10;;
67028;SDS011;53934;52.142;11.738;2022-11-03T08:00:47;7.47;;;3.40;;
67028;SDS011;53934;52.142;11.738;2022-11-03T08:03:19;8.77;;;3.42;;
67028;SDS011;53934;52.142;11.738;2022-11-03T08:05:52;8.15;;;3.40;;
67028;SDS011;53934;52.142;11.738;2022-11-03T08:08:18;8.88;;;3.25;;
67028;SDS011;53934;52.142;11.738;2022-11-03T08:10:45;11.35;;;4.55;;
67028;SDS011;53934;52.142;11.738;2022-11-03T08:13:11;11.40;;;4.00;;
67028;SDS011;53934;52.142;11.738;2022-11-03T08:15:37;6.65;;;3.05;;
67028;SDS011;53934;52.142;11.738;2022-11-03T08:18:05;8.57;;;3.22;;
67028;SDS011;53934;52.142;11.738;2022-11-03T08:20:32;10.90;;;3.10;;
67028;SDS011;53934;52.142;11.738;2022-11-03T08:22:58;10.75;;;3.10;;
67028;SDS011;53934;52.142;11.738;2022-11-03T08:25:25;10.57;;;3.03;;
67028;SDS011;53934;52.142;11.738;2022-11-03T08:27:51;8.43;;;2.70;;
67028;SDS011;53934;52.142;11.738;2022-11-03T08:30:17;11.70;;;3.30;;
67028;SDS011;53934;52.142;11.738;2022-11-03T08:32:44;7.72;;;2.92;;
67028;SDS011;53934;52.142;11.738;2022-11-03T08:35:12;8.30;;;3.38;;
67028;SDS011;53934;52.142;11.738;2022-11-03T08:37:38;10.45;;;3.00;;
67028;SDS011;53934;52.142;11.738;2022-11-03T08:40:05;20.55;;;3.33;;
67028;SDS011;53934;52.142;11.738;2022-11-03T08:42:33;13.88;;;3.42;;
67028;SDS011;53934;52.142;11.738;2022-11-03T08:44:59;8.85;;;2.78;;
67028;SDS011;53934;52.142;11.738;2022-11-03T08:47:26;8.50;;;3.20;;
67028;SDS011;53934;52.142;11.738;2022-11-03T08:49:52;11.07;;;3.80;;
67028;SDS011;53934;52.142;11.738;2022-11-03T08:52:20;11.15;;;3.30;;
67028;SDS011;53934;52.142;11.738;2022-11-03T08:54:46;7.90;;;3.33;;
67028;SDS011;53934;52.142;11.738;2022-11-03T08:57:13;11.30;;;3.42;;
67028;SDS011;53934;52.142;11.738;2022-11-03T08:59:40;10.27;;;3.65;;
67028;SDS011;53934;52.142;11.738;2022-11-03T09:02:06;10.02;;;3.83;;
67028;SDS011;53934;52.142;11.738;2022-11-03T09:04:33;13.48;;;4.60;;
67028;SDS011;53934;52.142;11.738;2022-11-03T09:06:59;16.08;;;5.03;;
67028;SDS011;53934;52.142;11.738;2022-11-03T09:09:27;13.40;;;5.53;;
67028;SDS011;53934;52.142;11.738;2022-11-03T09:11:53;23.08;;;7.35;;
67028;SDS011;53934;52.142;11.738;2022-11-03T09:14:20;11.75;;;5.80;;
67028;SDS011;53934;52.142;11.738;2022-11-03T09:16:46;16.30;;;5.80;;
67028;SDS011;53934;52.142;11.738;2022-11-03T09:19:13;11.25;;;4.55;;
67028;SDS011;53934;52.142;11.738;2022-11-03T09:21:39;11.85;;;4.43;;
67028;SDS011;53934;52.142;11.738;2022-11-03T09:24:06;10.43;;;3.85;;
67028;SDS011;53934;52.142;11.738;2022-11-03T09:26:34;8.57;;;3.10;;
67028;SDS011;53934;52.142;11.738;2022-11-03T09:29:01;12.35;;;3.67;;
67028;SDS011;53934;52.142;11.738;2022-11-03T09:31:28;12.70;;;3.25;;
67028;SDS011;53934;52.142;11.738;2022-11-03T09:33:54;9.02;;;2.97;;
67028;SDS011;53934;52.142;11.738;2022-11-03T09:36:21;9.50;;;3.45;;
67028;SDS011;53934;52.142;11.738;2022-11-03T09:38:47;14.55;;;3.20;;
67028;SDS011;53934;52.142;11.738;2022-11-03T09:41:14;16.70;;;3.55;;
67028;SDS011;53934;52.142;11.738;2022-11-03T09:43:44;11.32;;;3.38;;
67028;SDS011;53934;52.142;11.738;2022-11-03T09:46:11;6.35;;;2.90;;
67028;SDS011;53934;52.142;11.738;2022-11-03T09:48:38;12.07;;;3.65;;
67028;SDS011;53934;52.142;11.738;2022-11-03T09:51:05;12.48;;;3.20;;
67028;SDS011;53934;52.142;11.738;2022-11-03T09:53:35;7.78;;;3.33;;
67028;SDS011;53934;52.142;11.738;2022-11-03T09:56:01;13.45;;;3.55;;
67028;SDS011;53934;52.142;11.738;2022-11-03T09:58:28;7.85;;;2.90;;
67028;SDS011;53934;52.142;11.738;2022-11-03T10:00:56;9.90;;;2.95;;
67028;SDS011;53934;52.142;11.738;2022-11-03T10:03:22;12.45;;;3.20;;
67028;SDS011;53934;52.142;11.738;2022-11-03T10:05:49;12.95;;;3.25;;
67028;SDS011;53934;52.142;11.738;2022-11-03T10:08:18;16.10;;;3.40;;
67028;SDS011;53934;52.142;11.738;2022-11-03T10:10:47;10.17;;;3.10;;
67028;SDS011;53934;52.142;11.738;2022-11-03T10:13:15;7.40;;;3.13;;
67028;SDS011;53934;52.142;11.738;2022-11-03T10:15:47;10.25;;;3.40;;
67028;SDS011;53934;52.142;11.738;2022-11-03T10:18:15;8.13;;;3.03;;
67028;SDS011;53934;52.142;11.738;2022-11-03T10:20:42;11.15;;;3.28;;
67028;SDS011;53934;52.142;11.738;2022-11-03T10:23:09;9.32;;;3.20;;
67028;SDS011;53934;52.142;11.738;2022-11-03T10:25:36;12.82;;;3.95;;
67028;SDS011;53934;52.142;11.738;2022-11-03T10:30:53;11.25;;;3.38;;
67028;SDS011;53934;52.142;11.738;2022-11-03T10:33:25;11.80;;;3.33;;
67028;SDS011;53934;52.142;11.738;2022-11-03T10:35:54;7.63;;;3.00;;
67028;SDS011;53934;52.142;11.738;2022-11-03T10:38:24;9.88;;;3.30;;
67028;SDS011;53934;52.142;11.738;2022-11-03T10:40:52;6.90;;;3.22;;
67028;SDS011;53934;52.142;11.738;2022-11-03T10:43:19;7.80;;;3.45;;
67028;SDS011;53934;52.142;11.738;2022-11-03T10:45:46;8.48;;;3.38;;
67028;SDS011;53934;52.142;11.738;2022-11-03T10:48:13;11.65;;;3.90;;
67028;SDS011;53934;52.142;11.738;2022-11-03T10:50:41;10.50;;;3.50;;
67028;SDS011;53934;52.142;11.738;2022-11-03T10:53:11;6.18;;;2.83;;
67028;SDS011;53934;52.142;11.738;2022-11-03T10:55:42;8.32;;;2.90;;
67028;SDS011;53934;52.142;11.738;2022-11-03T10:58:09;13.77;;;3.53;;
67028;SDS011;53934;52.142;11.738;2022-11-03T11:00:35;12.77;;;3.15;;
67028;SDS011;53934;52.142;11.738;2022-11-03T11:03:02;8.38;;;3.63;;
67028;SDS011;53934;52.142;11.738;2022-11-03T11:05:30;7.80;;;3.47;;
67028;SDS011;53934;52.142;11.738;2022-11-03T11:07:58;8.80;;;3.80;;
67028;SDS011;53934;52.142;11.738;2022-11-03T11:10:27;9.23;;;3.40;;
67028;SDS011;53934;52.142;11.738;2022-11-03T11:13:05;7.57;;;3.40;;
67028;SDS011;53934;52.142;11.738;2022-11-03T11:15:50;10.30;;;3.13;;
67028;SDS011;53934;52.142;11.738;2022-11-03T11:24:21;11.73;;;3.17;;
67028;SDS011;53934;52.142;11.738;2022-11-03T11:33:26;8.65;;;2.55;;
67028;SDS011;53934;52.142;11.738;2022-11-03T11:44:47;7.78;;;2.95;;
67028;SDS011;53934;52.142;11.738;2022-11-03T11:47:19;11.18;;;3.60;;
67028;SDS011;53934;52.142;11.738;2022-11-03T11:49:59;7.30;;;2.25;;
67028;SDS011;53934;52.142;11.738;2022-11-03T11:52:28;10.32;;;2.72;;
67028;SDS011;53934;52.142;11.738;2022-11-03T11:54:55;6.93;;;2.35;;
67028;SDS011;53934;52.142;11.738;2022-11-03T11:57:23;7.45;;;2.05;;
67028;SDS011;53934;52.142;11.738;2022-11-03T11:59:49;8.52;;;2.65;;
67028;SDS011;53934;52.142;11.738;2022-11-03T12:02:17;6.45;;;2.35;;
67028;SDS011;53934;52.142;11.738;2022-11-03T12:04:45;7.57;;;2.33;;
67028;SDS011;53934;52.142;11.738;2022-11-03T12:07:12;9.52;;;2.35;;
67028;SDS011;53934;52.142;11.738;2022-11-03T12:09:39;6.43;;;2.08;;
67028;SDS011;53934;52.142;11.738;2022-11-03T12:12:05;7.22;;;2.10;;
67028;SDS011;53934;52.142;11.738;2022-11-03T12:14:34;7.28;;;2.17;;
67028;SDS011;53934;52.142;11.738;2022-11-03T12:19:56;6.05;;;2.13;;
67028;SDS011;53934;52.142;11.738;2022-11-03T12:25:32;4.00;;;2.20;;
67028;SDS011;53934;52.142;11.738;2022-11-03T12:28:01;5.30;;;1.90;;
67028;SDS011;53934;52.142;11.738;2022-11-03T12:30:29;6.43;;;2.22;;
67028;SDS011;53934;52.142;11.738;2022-11-03T12:32:55;4.43;;;1.95;;
67028;SDS011;53934;52.142;11.738;2022-11-03T12:35:22;9.82;;;2.13;;
67028;SDS011;53934;52.142;11.738;2022-11-03T12:37:48;6.53;;;2.30;;
67028;SDS011;53934;52.142;11.738;2022-11-03T12:40:14;4.38;;;1.88;;
67028;SDS011;53934;52.142;11.738;2022-11-03T12:42:41;8.57;;;2.38;;
67028;SDS011;53934;52.142;11.738;2022-11-03T12:45:08;5.97;;;2.30;;
67028;SDS011;53934;52.142;11.738;2022-11-03T12:47:38;5.07;;;2.05;;
67028;SDS011;53934;52.142;11.738;2022-11-03T12:50:05;5.25;;;1.98;;
67028;SDS011;53934;52.142;11.738;2022-11-03T12:52:31;9.52;;;2.47;;
67028;SDS011;53934;52.142;11.738;2022-11-03T12:54:58;4.50;;;2.10;;
67028;SDS011;53934;52.142;11.738;2022-11-03T12:57:24;7.63;;;2.20;;
67028;SDS011;53934;52.142;11.738;2022-11-03T12:59:51;9.55;;;2.38;;
67028;SDS011;53934;52.142;11.738;2022-11-03T13:02:17;6.18;;;2.40;;
67028;SDS011;53934;52.142;11.738;2022-11-03T13:04:45;7.22;;;1.80;;
67028;SDS011;53934;52.142;11.738;2022-11-03T13:07:12;7.18;;;1.80;;
67028;SDS011;53934;52.142;11.738;2022-11-03T13:09:38;5.90;;;2.03;;
67028;SDS011;53934;52.142;11.738;2022-11-03T13:12:05;8.30;;;2.22;;
67028;SDS011;53934;52.142;11.738;2022-11-03T13:14:49;6.43;;;1.70;;
67028;SDS011;53934;52.142;11.738;2022-11-03T13:17:15;5.53;;;1.90;;
67028;SDS011;53934;52.142;11.738;2022-11-03T13:19:42;7.03;;;1.85;;
67028;SDS011;53934;52.142;11.738;2022-11-03T13:22:09;3.35;;;2.13;;
67028;SDS011;53934;52.142;11.738;2022-11-03T13:24:36;5.00;;;2.08;;
67028;SDS011;53934;52.142;11.738;2022-11-03T13:27:02;7.07;;;2.10;;
67028;SDS011;53934;52.142;11.738;2022-11-03T13:29:29;4.45;;;1.92;;
67028;SDS011;53934;52.142;11.738;2022-11-03T13:31:55;5.78;;;2.20;;
67028;SDS011;53934;52.142;11.738;2022-11-03T13:34:22;4.75;;;1.88;;
67028;SDS011;53934;52.142;11.738;2022-11-03T13:36:48;8.77;;;2.00;;
67028;SDS011;53934;52.142;11.738;2022-11-03T13:39:16;6.32;;;1.90;;
67028;SDS011;53934;52.142;11.738;2022-11-03T13:41:43;5.00;;;2.17;;
67028;SDS011;53934;52.142;11.738;2022-11-03T13:44:09;9.93;;;2.10;;
67028;SDS011;53934;52.142;11.738;2022-11-03T13:46:35;9.60;;;1.92;;
67028;SDS011;53934;52.142;11.738;2022-11-03T13:49:02;8.82;;;2.15;;
67028;SDS011;53934;52.142;11.738;2022-11-03T13:51:29;4.90;;;1.83;;
67028;SDS011;53934;52.142;11.738;2022-11-03T13:53:55;5.30;;;1.60;;
67028;SDS011;53934;52.142;11.738;2022-11-03T13:56:23;7.40;;;2.33;;
67028;SDS011;53934;52.142;11.738;2022-11-03T13:58:49;5.72;;;1.70;;
67028;SDS011;53934;52.142;11.738;2022-11-03T14:01:16;4.30;;;1.63;;
67028;SDS011;53934;52.142;11.738;2022-11-03T14:03:42;7.45;;;1.42;;
67028;SDS011;53934;52.142;11.738;2022-11-03T14:06:09;7.20;;;2.95;;
67028;SDS011;53934;52.142;11.738;2022-11-03T14:08:35;5.80;;;1.70;;
67028;SDS011;53934;52.142;11.738;2022-11-03T14:11:02;4.60;;;1.52;;
67028;SDS011;53934;52.142;11.738;2022-11-03T14:13:49;6.57;;;1.98;;
67028;SDS011;53934;52.142;11.738;2022-11-03T14:16:15;5.53;;;1.65;;
67028;SDS011;53934;52.142;11.738;2022-11-03T14:18:42;6.50;;;1.90;;
67028;SDS011;53934;52.142;11.738;2022-11-03T14:21:08;11.27;;;1.77;;
67028;SDS011;53934;52.142;11.738;2022-11-03T14:23:34;4.07;;;1.50;;
67028;SDS011;53934;52.142;11.738;2022-11-03T14:26:01;10.15;;;1.98;;
67028;SDS011;53934;52.142;11.738;2022-11-03T14:28:27;9.80;;;1.70;;
67028;SDS011;53934;52.142;11.738;2022-11-03T14:30:55;6.50;;;1.80;;
67028;SDS011;53934;52.142;11.738;2022-11-03T14:33:23;9.18;;;2.17;;
67028;SDS011;53934;52.142;11.738;2022-11-03T14:35:50;10.27;;;2.40;;
67028;SDS011;53934;52.142;11.738;2022-11-03T14:38:16;11.20;;;3.10;;
67028;SDS011;53934;52.142;11.738;2022-11-03T14:40:43;7.10;;;2.42;;
67028;SDS011;53934;52.142;11.738;2022-11-03T14:43:27;6.72;;;2.10;;
67028;SDS011;53934;52.142;11.738;2022-11-03T14:45:53;9.60;;;2.25;;
67028;SDS011;53934;52.142;11.738;2022-11-03T14:48:21;6.10;;;1.83;;
67028;SDS011;53934;52.142;11.738;2022-11-03T14:50:48;7.40;;;2.38;;
67028;SDS011;53934;52.142;11.738;2022-11-03T14:53:14;6.90;;;1.80;;
67028;SDS011;53934;52.142;11.738;2022-11-03T14:55:41;9.55;;;1.90;;
67028;SDS011;53934;52.142;11.738;2022-11-03T14:58:07;6.88;;;2.20;;
67028;SDS011;53934;52.142;11.738;2022-11-03T15:00:34;7.07;;;2.28;;
67028;SDS011;53934;52.142;11.738;2022-11-03T15:03:01;7.63;;;2.20;;
67028;SDS011;53934;52.142;11.738;2022-11-03T15:05:28;4.97;;;1.70;;
67028;SDS011;53934;52.142;11.738;2022-11-03T15:08:10;4.93;;;1.80;;
67028;SDS011;53934;52.142;11.738;2022-11-03T15:10:36;7.25;;;1.85;;
67028;SDS011;53934;52.142;11.738;2022-11-03T15:13:03;5.18;;;1.80;;
67028;SDS011;53934;52.142;11.738;2022-11-03T15:15:29;8.48;;;2.13;;